sensor_id;sensor_type;location;lat;lon;timestamp;temperature;humidity
2523;DHT22;1272;53.332;9.860;2022-07-11T00:02:05;13.30;99.90
2523;DHT22;1272;53.332;9.860;2022-07-11T00:04:32;13.30;99.90
2523;DHT22;1272;53.332;9.860;2022-07-11T00:06:58;13.30;99.90
2523;DHT22;1272;53.332;9.860;2022-07-11T00:09:24;13.20;99.90
2523;DHT22;1272;53.332;9.860;2022-07-11T00:11:50;13.20;99.90
2523;DHT22;1272;53.332;9.860;2022-07-11T00:14:17;13.10;99.90
2523;DHT22;1272;53.332;9.860;2022-07-11T00:16:42;13.00;99.90
2523;DHT22;1272;53.332;9.860;2022-07-11T00:19:08;13.00;99.90
2523;DHT22;1272;53.332;9.860;2022-07-11T00:21:35;12.90;1.00
2523;DHT22;1272;53.332;9.860;2022-07-11T00:24:02;12.80;1.00
2523;DHT22;1272;53.332;9.860;2022-07-11T00:26:28;12.80;1.00
2523;DHT22;1272;53.332;9.860;2022-07-11T00:28:54;12.80;99.90
2523;DHT22;1272;53.332;9.860;2022-07-11T00:31:20;12.70;1.00
2523;DHT22;1272;53.332;9.860;2022-07-11T00:33:46;12.80;1.00
2523;DHT22;1272;53.332;9.860;2022-07-11T00:36:11;12.80;58.00
2523;DHT22;1272;53.332;9.860;2022-07-11T00:38:37;12.80;99.90
2523;DHT22;1272;53.332;9.860;2022-07-11T00:41:03;12.80;99.90
2523;DHT22;1272;53.332;9.860;2022-07-11T00:43:34;12.90;99.90
2523;DHT22;1272;53.332;9.860;2022-07-11T00:46:00;12.90;99.90
2523;DHT22;1272;53.332;9.860;2022-07-11T00:48:26;12.80;62.70
2523;DHT22;1272;53.332;9.860;2022-07-11T00:50:53;12.80;1.00
2523;DHT22;1272;53.332;9.860;2022-07-11T00:53:20;12.80;1.00
2523;DHT22;1272;53.332;9.860;2022-07-11T00:55:46;12.70;76.30
2523;DHT22;1272;53.332;9.860;2022-07-11T00:58:12;12.70;5.80
2523;DHT22;1272;53.332;9.860;2022-07-11T01:00:39;12.70;62.80
2523;DHT22;1272;53.332;9.860;2022-07-11T01:03:05;12.70;1.00
2523;DHT22;1272;53.332;9.860;2022-07-11T01:05:31;12.70;1.00
2523;DHT22;1272;53.332;9.860;2022-07-11T01:07:57;12.70;12.40
2523;DHT22;1272;53.332;9.860;2022-07-11T01:10:23;12.70;99.90
2523;DHT22;1272;53.332;9.860;2022-07-11T01:12:49;12.70;99.90
2523;DHT22;1272;53.332;9.860;2022-07-11T01:15:16;12.70;99.90
2523;DHT22;1272;53.332;9.860;2022-07-11T01:17:43;12.80;99.90
2523;DHT22;1272;53.332;9.860;2022-07-11T01:20:09;12.80;99.90
2523;DHT22;1272;53.332;9.860;2022-07-11T01:22:47;12.80;99.90
2523;DHT22;1272;53.332;9.860;2022-07-11T01:25:19;12.80;99.90
2523;DHT22;1272;53.332;9.860;2022-07-11T01:27:58;12.80;1.00
2523;DHT22;1272;53.332;9.860;2022-07-11T01:30:26;12.70;99.90
2523;DHT22;1272;53.332;9.860;2022-07-11T01:32:54;12.70;1.00
2523;DHT22;1272;53.332;9.860;2022-07-11T01:35:20;12.60;1.00
2523;DHT22;1272;53.332;9.860;2022-07-11T01:37:46;12.60;1.00
2523;DHT22;1272;53.332;9.860;2022-07-11T01:40:11;12.60;1.00
2523;DHT22;1272;53.332;9.860;2022-07-11T01:42:37;12.60;1.00
2523;DHT22;1272;53.332;9.860;2022-07-11T01:45:03;12.50;1.00
2523;DHT22;1272;53.332;9.860;2022-07-11T01:47:29;12.50;1.00
2523;DHT22;1272;53.332;9.860;2022-07-11T01:49:55;12.40;1.00
2523;DHT22;1272;53.332;9.860;2022-07-11T01:52:21;12.30;99.90
2523;DHT22;1272;53.332;9.860;2022-07-11T01:54:47;12.30;99.90
2523;DHT22;1272;53.332;9.860;2022-07-11T01:57:13;12.30;99.90
2523;DHT22;1272;53.332;9.860;2022-07-11T01:59:39;12.20;99.90
2523;DHT22;1272;53.332;9.860;2022-07-11T02:02:05;12.20;99.90
2523;DHT22;1272;53.332;9.860;2022-07-11T02:04:32;12.20;99.90
2523;DHT22;1272;53.332;9.860;2022-07-11T02:06:57;12.10;99.90
2523;DHT22;1272;53.332;9.860;2022-07-11T02:09:23;12.10;99.90
2523;DHT22;1272;53.332;9.860;2022-07-11T02:11:49;12.00;99.90
2523;DHT22;1272;53.332;9.860;2022-07-11T02:14:15;12.00;99.90
2523;DHT22;1272;53.332;9.860;2022-07-11T02:16:41;12.00;99.90
2523;DHT22;1272;53.332;9.860;2022-07-11T02:19:07;11.90;99.90
2523;DHT22;1272;53.332;9.860;2022-07-11T02:21:33;11.90;99.90
2523;DHT22;1272;53.332;9.860;2022-07-11T02:23:59;11.90;99.90
2523;DHT22;1272;53.332;9.860;2022-07-11T02:26:25;11.90;99.90
2523;DHT22;1272;53.332;9.860;2022-07-11T02:28:51;11.80;99.90
2523;DHT22;1272;53.332;9.860;2022-07-11T02:31:16;11.80;99.90
2523;DHT22;1272;53.332;9.860;2022-07-11T02:33:42;11.80;99.90
2523;DHT22;1272;53.332;9.860;2022-07-11T02:36:08;11.80;99.90
2523;DHT22;1272;53.332;9.860;2022-07-11T02:38:34;11.80;99.90
2523;DHT22;1272;53.332;9.860;2022-07-11T02:41:00;11.70;99.90
2523;DHT22;1272;53.332;9.860;2022-07-11T02:43:26;11.70;99.90
2523;DHT22;1272;53.332;9.860;2022-07-11T02:45:53;11.70;99.90
2523;DHT22;1272;53.332;9.860;2022-07-11T02:48:19;11.60;1.00
2523;DHT22;1272;53.332;9.860;2022-07-11T02:50:45;11.60;1.00
2523;DHT22;1272;53.332;9.860;2022-07-11T02:53:11;11.70;1.00
2523;DHT22;1272;53.332;9.860;2022-07-11T02:55:37;11.60;1.00
2523;DHT22;1272;53.332;9.860;2022-07-11T02:58:03;11.70;1.00
2523;DHT22;1272;53.332;9.860;2022-07-11T03:00:29;11.70;1.00
2523;DHT22;1272;53.332;9.860;2022-07-11T03:02:55;11.70;1.00
2523;DHT22;1272;53.332;9.860;2022-07-11T03:05:20;11.70;1.00
2523;DHT22;1272;53.332;9.860;2022-07-11T03:07:46;11.70;1.00
2523;DHT22;1272;53.332;9.860;2022-07-11T03:10:12;11.70;1.00
2523;DHT22;1272;53.332;9.860;2022-07-11T03:12:38;11.70;1.00
2523;DHT22;1272;53.332;9.860;2022-07-11T03:15:04;11.70;1.00
2523;DHT22;1272;53.332;9.860;2022-07-11T03:17:30;11.70;1.00
2523;DHT22;1272;53.332;9.860;2022-07-11T03:19:56;11.70;1.00
2523;DHT22;1272;53.332;9.860;2022-07-11T03:22:22;11.70;1.00
2523;DHT22;1272;53.332;9.860;2022-07-11T03:24:48;11.70;1.00
2523;DHT22;1272;53.332;9.860;2022-07-11T03:27:16;11.70;1.00
2523;DHT22;1272;53.332;9.860;2022-07-11T03:29:42;11.70;1.00
2523;DHT22;1272;53.332;9.860;2022-07-11T03:32:08;11.70;1.00
2523;DHT22;1272;53.332;9.860;2022-07-11T03:34:34;11.70;1.00
2523;DHT22;1272;53.332;9.860;2022-07-11T03:37:00;11.70;1.00
2523;DHT22;1272;53.332;9.860;2022-07-11T03:39:26;11.70;1.00
2523;DHT22;1272;53.332;9.860;2022-07-11T03:41:51;11.70;1.00
2523;DHT22;1272;53.332;9.860;2022-07-11T03:44:17;11.70;1.00
2523;DHT22;1272;53.332;9.860;2022-07-11T03:46:43;11.80;1.00
2523;DHT22;1272;53.332;9.860;2022-07-11T03:49:09;11.80;1.00
2523;DHT22;1272;53.332;9.860;2022-07-11T03:51:34;11.90;1.00
2523;DHT22;1272;53.332;9.860;2022-07-11T03:54:00;12.00;1.00
2523;DHT22;1272;53.332;9.860;2022-07-11T03:56:26;12.00;10.60
2523;DHT22;1272;53.332;9.860;2022-07-11T03:58:52;12.00;15.70
2523;DHT22;1272;53.332;9.860;2022-07-11T04:01:18;12.00;1.00
2523;DHT22;1272;53.332;9.860;2022-07-11T04:03:45;12.00;1.00
2523;DHT22;1272;53.332;9.860;2022-07-11T04:06:11;12.00;1.00
2523;DHT22;1272;53.332;9.860;2022-07-11T04:08:37;12.00;1.00
2523;DHT22;1272;53.332;9.860;2022-07-11T04:11:03;12.00;1.00
2523;DHT22;1272;53.332;9.860;2022-07-11T04:13:32;12.00;1.00
2523;DHT22;1272;53.332;9.860;2022-07-11T04:15:58;12.10;25.10
2523;DHT22;1272;53.332;9.860;2022-07-11T04:18:24;12.10;37.30
2523;DHT22;1272;53.332;9.860;2022-07-11T04:20:49;12.20;66.80
2523;DHT22;1272;53.332;9.860;2022-07-11T04:23:18;12.20;72.50
2523;DHT22;1272;53.332;9.860;2022-07-11T04:25:44;12.20;57.90
2523;DHT22;1272;53.332;9.860;2022-07-11T04:28:10;12.20;66.80
2523;DHT22;1272;53.332;9.860;2022-07-11T04:30:35;12.20;66.30
2523;DHT22;1272;53.332;9.860;2022-07-11T04:33:01;12.30;90.80
2523;DHT22;1272;53.332;9.860;2022-07-11T04:35:27;12.40;4.20
2523;DHT22;1272;53.332;9.860;2022-07-11T04:37:53;12.30;17.80
2523;DHT22;1272;53.332;9.860;2022-07-11T04:40:20;12.30;86.20
2523;DHT22;1272;53.332;9.860;2022-07-11T04:42:51;12.30;99.90
2523;DHT22;1272;53.332;9.860;2022-07-11T04:45:18;12.30;99.90
2523;DHT22;1272;53.332;9.860;2022-07-11T04:47:44;12.30;99.90
2523;DHT22;1272;53.332;9.860;2022-07-11T04:50:10;12.40;99.90
2523;DHT22;1272;53.332;9.860;2022-07-11T04:52:36;12.40;99.90
2523;DHT22;1272;53.332;9.860;2022-07-11T04:55:02;12.40;99.90
2523;DHT22;1272;53.332;9.860;2022-07-11T04:57:27;12.50;99.90
2523;DHT22;1272;53.332;9.860;2022-07-11T04:59:53;12.60;99.90
2523;DHT22;1272;53.332;9.860;2022-07-11T05:02:19;12.60;99.90
2523;DHT22;1272;53.332;9.860;2022-07-11T05:04:45;12.70;99.90
2523;DHT22;1272;53.332;9.860;2022-07-11T05:07:11;12.70;99.90
2523;DHT22;1272;53.332;9.860;2022-07-11T05:09:39;12.80;99.90
2523;DHT22;1272;53.332;9.860;2022-07-11T05:12:06;12.80;99.90
2523;DHT22;1272;53.332;9.860;2022-07-11T05:14:32;12.90;99.90
2523;DHT22;1272;53.332;9.860;2022-07-11T05:16:57;13.10;99.90
2523;DHT22;1272;53.332;9.860;2022-07-11T05:19:23;13.20;99.90
2523;DHT22;1272;53.332;9.860;2022-07-11T05:21:49;13.30;99.90
2523;DHT22;1272;53.332;9.860;2022-07-11T05:24:14;13.40;99.90
2523;DHT22;1272;53.332;9.860;2022-07-11T05:26:40;13.40;99.90
2523;DHT22;1272;53.332;9.860;2022-07-11T05:29:09;13.40;99.90
2523;DHT22;1272;53.332;9.860;2022-07-11T05:31:35;13.50;99.90
2523;DHT22;1272;53.332;9.860;2022-07-11T05:34:01;13.50;99.90
2523;DHT22;1272;53.332;9.860;2022-07-11T05:36:27;13.70;99.90
2523;DHT22;1272;53.332;9.860;2022-07-11T05:38:52;13.80;99.90
2523;DHT22;1272;53.332;9.860;2022-07-11T05:41:18;13.80;99.90
2523;DHT22;1272;53.332;9.860;2022-07-11T05:43:44;13.90;99.90
2523;DHT22;1272;53.332;9.860;2022-07-11T05:46:09;13.90;99.90
2523;DHT22;1272;53.332;9.860;2022-07-11T05:48:35;14.00;99.90
2523;DHT22;1272;53.332;9.860;2022-07-11T05:51:01;14.00;99.90
2523;DHT22;1272;53.332;9.860;2022-07-11T05:53:26;14.10;99.90
2523;DHT22;1272;53.332;9.860;2022-07-11T05:55:52;14.00;99.90
2523;DHT22;1272;53.332;9.860;2022-07-11T05:58:18;14.10;99.90
2523;DHT22;1272;53.332;9.860;2022-07-11T06:00:43;14.10;99.90
2523;DHT22;1272;53.332;9.860;2022-07-11T06:03:09;14.20;99.90
2523;DHT22;1272;53.332;9.860;2022-07-11T06:05:35;14.20;99.90
2523;DHT22;1272;53.332;9.860;2022-07-11T06:08:00;14.30;99.90
2523;DHT22;1272;53.332;9.860;2022-07-11T06:10:45;14.30;99.90
2523;DHT22;1272;53.332;9.860;2022-07-11T06:13:10;14.30;9.40
2523;DHT22;1272;53.332;9.860;2022-07-11T06:15:36;14.40;20.10
2523;DHT22;1272;53.332;9.860;2022-07-11T06:18:02;14.50;1.00
2523;DHT22;1272;53.332;9.860;2022-07-11T06:20:28;14.60;1.00
2523;DHT22;1272;53.332;9.860;2022-07-11T06:22:53;14.70;1.00
2523;DHT22;1272;53.332;9.860;2022-07-11T06:25:19;14.90;1.00
2523;DHT22;1272;53.332;9.860;2022-07-11T06:27:45;15.10;1.00
2523;DHT22;1272;53.332;9.860;2022-07-11T06:30:11;15.10;99.90
2523;DHT22;1272;53.332;9.860;2022-07-11T06:32:36;15.20;99.90
2523;DHT22;1272;53.332;9.860;2022-07-11T06:35:05;15.40;99.90
2523;DHT22;1272;53.332;9.860;2022-07-11T06:37:31;15.50;99.90
2523;DHT22;1272;53.332;9.860;2022-07-11T06:39:58;15.70;1.00
2523;DHT22;1272;53.332;9.860;2022-07-11T06:42:23;15.70;1.00
2523;DHT22;1272;53.332;9.860;2022-07-11T06:44:49;15.70;99.90
2523;DHT22;1272;53.332;9.860;2022-07-11T06:47:14;15.80;1.00
2523;DHT22;1272;53.332;9.860;2022-07-11T06:49:40;15.90;99.90
2523;DHT22;1272;53.332;9.860;2022-07-11T06:52:06;16.00;99.90
2523;DHT22;1272;53.332;9.860;2022-07-11T06:54:56;16.00;1.00
2523;DHT22;1272;53.332;9.860;2022-07-11T06:57:23;16.20;1.00
2523;DHT22;1272;53.332;9.860;2022-07-11T06:59:49;16.30;99.90
2523;DHT22;1272;53.332;9.860;2022-07-11T07:02:15;16.40;1.00
2523;DHT22;1272;53.332;9.860;2022-07-11T07:04:40;16.40;99.90
2523;DHT22;1272;53.332;9.860;2022-07-11T07:07:06;16.50;99.90
2523;DHT22;1272;53.332;9.860;2022-07-11T07:09:32;16.60;1.00
2523;DHT22;1272;53.332;9.860;2022-07-11T07:11:57;16.70;99.90
2523;DHT22;1272;53.332;9.860;2022-07-11T07:14:23;16.70;1.00
2523;DHT22;1272;53.332;9.860;2022-07-11T07:16:49;16.60;99.90
2523;DHT22;1272;53.332;9.860;2022-07-11T07:19:15;16.60;99.90
2523;DHT22;1272;53.332;9.860;2022-07-11T07:21:40;16.60;99.90
2523;DHT22;1272;53.332;9.860;2022-07-11T07:24:06;16.70;99.90
2523;DHT22;1272;53.332;9.860;2022-07-11T07:26:32;16.80;82.80
2523;DHT22;1272;53.332;9.860;2022-07-11T07:28:58;16.90;1.00
2523;DHT22;1272;53.332;9.860;2022-07-11T07:31:24;17.00;89.60
2523;DHT22;1272;53.332;9.860;2022-07-11T07:33:50;17.00;99.90
2523;DHT22;1272;53.332;9.860;2022-07-11T07:36:16;17.00;1.00
2523;DHT22;1272;53.332;9.860;2022-07-11T07:38:43;17.10;1.00
2523;DHT22;1272;53.332;9.860;2022-07-11T07:41:12;17.20;99.90
2523;DHT22;1272;53.332;9.860;2022-07-11T07:43:38;17.30;97.30
2523;DHT22;1272;53.332;9.860;2022-07-11T07:46:04;17.20;99.90
2523;DHT22;1272;53.332;9.860;2022-07-11T07:48:30;17.30;99.90
2523;DHT22;1272;53.332;9.860;2022-07-11T07:50:56;17.30;99.90
2523;DHT22;1272;53.332;9.860;2022-07-11T07:53:21;17.30;1.00
2523;DHT22;1272;53.332;9.860;2022-07-11T07:55:47;17.40;99.90
2523;DHT22;1272;53.332;9.860;2022-07-11T07:58:15;17.70;99.90
2523;DHT22;1272;53.332;9.860;2022-07-11T08:00:40;17.60;20.30
2523;DHT22;1272;53.332;9.860;2022-07-11T08:03:25;17.60;1.00
2523;DHT22;1272;53.332;9.860;2022-07-11T08:05:50;17.70;1.00
2523;DHT22;1272;53.332;9.860;2022-07-11T08:08:16;17.70;1.00
2523;DHT22;1272;53.332;9.860;2022-07-11T08:10:42;17.70;1.00
2523;DHT22;1272;53.332;9.860;2022-07-11T08:13:07;17.60;1.00
2523;DHT22;1272;53.332;9.860;2022-07-11T08:15:33;17.60;1.00
2523;DHT22;1272;53.332;9.860;2022-07-11T08:17:59;17.60;1.00
2523;DHT22;1272;53.332;9.860;2022-07-11T08:20:25;17.60;1.00
2523;DHT22;1272;53.332;9.860;2022-07-11T08:22:50;17.50;1.00
2523;DHT22;1272;53.332;9.860;2022-07-11T08:25:16;17.50;23.00
2523;DHT22;1272;53.332;9.860;2022-07-11T08:27:42;17.30;1.00
2523;DHT22;1272;53.332;9.860;2022-07-11T08:30:09;17.30;12.40
2523;DHT22;1272;53.332;9.860;2022-07-11T08:32:38;17.40;99.90
2523;DHT22;1272;53.332;9.860;2022-07-11T08:35:05;17.60;1.00
2523;DHT22;1272;53.332;9.860;2022-07-11T08:37:30;17.70;1.00
2523;DHT22;1272;53.332;9.860;2022-07-11T08:39:56;17.80;1.00
2523;DHT22;1272;53.332;9.860;2022-07-11T08:42:23;17.90;1.00
2523;DHT22;1272;53.332;9.860;2022-07-11T08:44:51;18.10;1.00
2523;DHT22;1272;53.332;9.860;2022-07-11T08:47:17;18.20;1.00
2523;DHT22;1272;53.332;9.860;2022-07-11T08:49:44;18.50;1.00
2523;DHT22;1272;53.332;9.860;2022-07-11T08:52:11;18.60;99.90
2523;DHT22;1272;53.332;9.860;2022-07-11T08:54:38;18.70;99.90
2523;DHT22;1272;53.332;9.860;2022-07-11T08:57:04;18.90;99.90
2523;DHT22;1272;53.332;9.860;2022-07-11T08:59:31;19.00;99.90
2523;DHT22;1272;53.332;9.860;2022-07-11T09:02:02;19.00;99.90
2523;DHT22;1272;53.332;9.860;2022-07-11T09:04:29;19.00;99.90
2523;DHT22;1272;53.332;9.860;2022-07-11T09:06:56;19.00;99.90
2523;DHT22;1272;53.332;9.860;2022-07-11T09:09:24;19.10;71.80
2523;DHT22;1272;53.332;9.860;2022-07-11T09:11:57;19.00;99.90
2523;DHT22;1272;53.332;9.860;2022-07-11T09:14:31;19.00;99.90
2523;DHT22;1272;53.332;9.860;2022-07-11T09:17:02;19.00;99.90
2523;DHT22;1272;53.332;9.860;2022-07-11T09:19:36;19.00;99.90
2523;DHT22;1272;53.332;9.860;2022-07-11T09:22:16;18.90;99.90
2523;DHT22;1272;53.332;9.860;2022-07-11T09:25:06;19.00;99.90
2523;DHT22;1272;53.332;9.860;2022-07-11T09:28:02;19.10;99.90
2523;DHT22;1272;53.332;9.860;2022-07-11T09:30:33;19.30;99.90
2523;DHT22;1272;53.332;9.860;2022-07-11T09:33:06;19.30;1.00
2523;DHT22;1272;53.332;9.860;2022-07-11T09:35:34;19.10;99.90
2523;DHT22;1272;53.332;9.860;2022-07-11T09:38:05;19.00;99.90
2523;DHT22;1272;53.332;9.860;2022-07-11T09:40:31;19.10;99.90
2523;DHT22;1272;53.332;9.860;2022-07-11T09:42:57;19.20;99.90
2523;DHT22;1272;53.332;9.860;2022-07-11T09:45:25;19.30;99.90
2523;DHT22;1272;53.332;9.860;2022-07-11T09:47:53;19.10;99.90
2523;DHT22;1272;53.332;9.860;2022-07-11T09:50:28;19.20;99.90
2523;DHT22;1272;53.332;9.860;2022-07-11T09:52:59;19.40;99.90
2523;DHT22;1272;53.332;9.860;2022-07-11T09:55:26;19.70;99.90
2523;DHT22;1272;53.332;9.860;2022-07-11T09:57:52;19.90;99.90
2523;DHT22;1272;53.332;9.860;2022-07-11T10:00:18;20.00;99.90
2523;DHT22;1272;53.332;9.860;2022-07-11T10:02:44;19.90;58.30
2523;DHT22;1272;53.332;9.860;2022-07-11T10:05:11;19.90;99.90
2523;DHT22;1272;53.332;9.860;2022-07-11T10:07:36;19.90;99.90
2523;DHT22;1272;53.332;9.860;2022-07-11T10:10:05;20.00;50.10
2523;DHT22;1272;53.332;9.860;2022-07-11T10:12:31;19.90;1.00
2523;DHT22;1272;53.332;9.860;2022-07-11T10:15:01;19.90;63.50
2523;DHT22;1272;53.332;9.860;2022-07-11T10:17:48;19.80;1.00
2523;DHT22;1272;53.332;9.860;2022-07-11T10:30:58;19.80;99.90
2523;DHT22;1272;53.332;9.860;2022-07-11T10:33:28;19.60;97.90
2523;DHT22;1272;53.332;9.860;2022-07-11T10:35:55;19.60;99.90
2523;DHT22;1272;53.332;9.860;2022-07-11T10:38:22;19.50;99.90
2523;DHT22;1272;53.332;9.860;2022-07-11T10:46:02;19.10;1.00
2523;DHT22;1272;53.332;9.860;2022-07-11T10:48:31;19.10;1.00
2523;DHT22;1272;53.332;9.860;2022-07-11T10:53:33;19.20;99.90
2523;DHT22;1272;53.332;9.860;2022-07-11T10:56:24;19.30;1.00
2523;DHT22;1272;53.332;9.860;2022-07-11T10:59:13;19.60;1.00
2523;DHT22;1272;53.332;9.860;2022-07-11T11:04:54;20.50;99.90
2523;DHT22;1272;53.332;9.860;2022-07-11T11:07:43;20.90;99.90
2523;DHT22;1272;53.332;9.860;2022-07-11T11:15:33;20.60;15.50
2523;DHT22;1272;53.332;9.860;2022-07-11T11:23:40;21.30;1.00
2523;DHT22;1272;53.332;9.860;2022-07-11T11:26:07;21.30;1.00
2523;DHT22;1272;53.332;9.860;2022-07-11T11:28:33;20.90;1.00
2523;DHT22;1272;53.332;9.860;2022-07-11T11:31:01;20.70;92.50
2523;DHT22;1272;53.332;9.860;2022-07-11T11:33:32;20.70;94.00
2523;DHT22;1272;53.332;9.860;2022-07-11T11:36:08;21.30;1.00
2523;DHT22;1272;53.332;9.860;2022-07-11T11:38:40;21.80;1.00
2523;DHT22;1272;53.332;9.860;2022-07-11T11:41:07;21.60;1.00
2523;DHT22;1272;53.332;9.860;2022-07-11T11:43:34;21.20;1.00
2523;DHT22;1272;53.332;9.860;2022-07-11T11:46:00;20.90;1.00
2523;DHT22;1272;53.332;9.860;2022-07-11T11:48:37;21.00;99.90
2523;DHT22;1272;53.332;9.860;2022-07-11T11:53:39;21.30;1.00
2523;DHT22;1272;53.332;9.860;2022-07-11T11:56:27;21.00;1.00
2523;DHT22;1272;53.332;9.860;2022-07-11T11:59:07;20.80;1.00
2523;DHT22;1272;53.332;9.860;2022-07-11T12:01:38;20.80;90.40
2523;DHT22;1272;53.332;9.860;2022-07-11T12:04:06;20.80;12.40
2523;DHT22;1272;53.332;9.860;2022-07-11T12:06:43;20.90;75.20
2523;DHT22;1272;53.332;9.860;2022-07-11T12:09:15;21.10;67.40
2523;DHT22;1272;53.332;9.860;2022-07-11T12:11:46;21.50;1.00
2523;DHT22;1272;53.332;9.860;2022-07-11T12:14:13;21.60;1.00
2523;DHT22;1272;53.332;9.860;2022-07-11T12:16:44;21.70;99.90
2523;DHT22;1272;53.332;9.860;2022-07-11T12:19:22;21.90;99.90
2523;DHT22;1272;53.332;9.860;2022-07-11T12:21:53;22.20;99.90
2523;DHT22;1272;53.332;9.860;2022-07-11T12:24:21;22.30;99.90
2523;DHT22;1272;53.332;9.860;2022-07-11T12:26:47;22.70;99.90
2523;DHT22;1272;53.332;9.860;2022-07-11T12:29:18;22.60;99.90
2523;DHT22;1272;53.332;9.860;2022-07-11T12:34:13;22.20;99.90
2523;DHT22;1272;53.332;9.860;2022-07-11T12:36:39;22.10;99.90
2523;DHT22;1272;53.332;9.860;2022-07-11T12:39:05;22.60;1.00
2523;DHT22;1272;53.332;9.860;2022-07-11T12:41:31;23.10;99.90
2523;DHT22;1272;53.332;9.860;2022-07-11T12:43:57;23.10;99.90
2523;DHT22;1272;53.332;9.860;2022-07-11T12:46:42;23.00;99.90
2523;DHT22;1272;53.332;9.860;2022-07-11T12:49:11;22.80;99.90
2523;DHT22;1272;53.332;9.860;2022-07-11T12:51:39;22.60;99.90
2523;DHT22;1272;53.332;9.860;2022-07-11T12:54:11;22.40;99.90
2523;DHT22;1272;53.332;9.860;2022-07-11T12:56:37;22.60;99.90
2523;DHT22;1272;53.332;9.860;2022-07-11T12:59:04;22.90;99.90
2523;DHT22;1272;53.332;9.860;2022-07-11T13:01:32;23.00;99.90
2523;DHT22;1272;53.332;9.860;2022-07-11T13:03:59;22.80;99.90
2523;DHT22;1272;53.332;9.860;2022-07-11T13:06:25;22.50;99.90
2523;DHT22;1272;53.332;9.860;2022-07-11T13:09:09;22.20;99.90
2523;DHT22;1272;53.332;9.860;2022-07-11T13:11:38;22.00;99.90
2523;DHT22;1272;53.332;9.860;2022-07-11T13:14:04;22.20;99.90
2523;DHT22;1272;53.332;9.860;2022-07-11T13:16:49;22.30;99.90
2523;DHT22;1272;53.332;9.860;2022-07-11T13:19:15;22.10;99.90
2523;DHT22;1272;53.332;9.860;2022-07-11T13:21:41;21.80;99.90
2523;DHT22;1272;53.332;9.860;2022-07-11T13:24:07;21.60;99.90
2523;DHT22;1272;53.332;9.860;2022-07-11T13:26:32;21.60;99.90
2523;DHT22;1272;53.332;9.860;2022-07-11T13:28:58;21.50;99.90
2523;DHT22;1272;53.332;9.860;2022-07-11T13:31:25;21.70;99.90
2523;DHT22;1272;53.332;9.860;2022-07-11T13:33:50;22.00;99.90
2523;DHT22;1272;53.332;9.860;2022-07-11T13:36:16;22.20;99.90
2523;DHT22;1272;53.332;9.860;2022-07-11T13:38:42;22.30;99.90
2523;DHT22;1272;53.332;9.860;2022-07-11T13:41:11;22.40;99.90
2523;DHT22;1272;53.332;9.860;2022-07-11T13:43:36;22.20;99.90
2523;DHT22;1272;53.332;9.860;2022-07-11T13:46:03;22.50;99.90
2523;DHT22;1272;53.332;9.860;2022-07-11T13:48:28;23.00;99.90
2523;DHT22;1272;53.332;9.860;2022-07-11T13:50:54;23.60;99.90
2523;DHT22;1272;53.332;9.860;2022-07-11T13:53:20;23.90;99.90
2523;DHT22;1272;53.332;9.860;2022-07-11T13:55:46;23.60;99.90
2523;DHT22;1272;53.332;9.860;2022-07-11T13:58:11;23.30;99.90
2523;DHT22;1272;53.332;9.860;2022-07-11T14:00:50;23.00;99.90
2523;DHT22;1272;53.332;9.860;2022-07-11T14:03:16;23.30;99.90
2523;DHT22;1272;53.332;9.860;2022-07-11T14:05:42;23.70;99.90
2523;DHT22;1272;53.332;9.860;2022-07-11T14:08:07;24.20;99.90
2523;DHT22;1272;53.332;9.860;2022-07-11T14:10:33;24.60;93.10
2523;DHT22;1272;53.332;9.860;2022-07-11T14:12:59;24.90;44.20
2523;DHT22;1272;53.332;9.860;2022-07-11T14:15:25;24.80;37.20
2523;DHT22;1272;53.332;9.860;2022-07-11T14:17:51;24.30;25.00
2523;DHT22;1272;53.332;9.860;2022-07-11T14:20:17;23.90;24.60
2523;DHT22;1272;53.332;9.860;2022-07-11T14:22:42;23.50;44.50
2523;DHT22;1272;53.332;9.860;2022-07-11T14:25:08;23.30;99.90
2523;DHT22;1272;53.332;9.860;2022-07-11T14:27:35;23.60;99.90
2523;DHT22;1272;53.332;9.860;2022-07-11T14:30:06;24.20;73.60
2523;DHT22;1272;53.332;9.860;2022-07-11T14:32:33;24.70;28.50
2523;DHT22;1272;53.332;9.860;2022-07-11T14:34:59;25.10;21.00
2523;DHT22;1272;53.332;9.860;2022-07-11T14:37:25;25.30;13.50
2523;DHT22;1272;53.332;9.860;2022-07-11T14:39:52;25.00;1.00
2523;DHT22;1272;53.332;9.860;2022-07-11T14:42:17;24.30;1.00
2523;DHT22;1272;53.332;9.860;2022-07-11T14:44:43;23.90;4.60
2523;DHT22;1272;53.332;9.860;2022-07-11T14:47:09;23.50;5.10
2523;DHT22;1272;53.332;9.860;2022-07-11T14:49:34;23.10;47.20
2523;DHT22;1272;53.332;9.860;2022-07-11T14:52:00;23.50;93.40
2523;DHT22;1272;53.332;9.860;2022-07-11T14:54:26;23.60;14.60
2523;DHT22;1272;53.332;9.860;2022-07-11T14:56:52;23.50;4.50
2523;DHT22;1272;53.332;9.860;2022-07-11T14:59:18;23.30;1.00
2523;DHT22;1272;53.332;9.860;2022-07-11T15:01:43;23.10;20.20
2523;DHT22;1272;53.332;9.860;2022-07-11T15:04:09;23.30;22.30
2523;DHT22;1272;53.332;9.860;2022-07-11T15:06:35;23.40;18.30
2523;DHT22;1272;53.332;9.860;2022-07-11T15:09:19;23.80;18.70
2523;DHT22;1272;53.332;9.860;2022-07-11T15:12:04;24.30;13.00
2523;DHT22;1272;53.332;9.860;2022-07-11T15:14:50;25.00;1.00
2523;DHT22;1272;53.332;9.860;2022-07-11T15:17:17;25.40;1.00
2523;DHT22;1272;53.332;9.860;2022-07-11T15:19:42;25.50;1.00
2523;DHT22;1272;53.332;9.860;2022-07-11T15:22:08;25.50;1.00
2523;DHT22;1272;53.332;9.860;2022-07-11T15:24:34;25.40;1.00
2523;DHT22;1272;53.332;9.860;2022-07-11T15:26:59;24.80;1.00
2523;DHT22;1272;53.332;9.860;2022-07-11T15:29:25;24.60;1.00
2523;DHT22;1272;53.332;9.860;2022-07-11T15:31:51;25.00;1.00
2523;DHT22;1272;53.332;9.860;2022-07-11T15:34:17;25.60;1.00
2523;DHT22;1272;53.332;9.860;2022-07-11T15:36:47;25.50;1.00
2523;DHT22;1272;53.332;9.860;2022-07-11T15:39:14;25.50;1.00
2523;DHT22;1272;53.332;9.860;2022-07-11T15:41:40;25.30;1.00
2523;DHT22;1272;53.332;9.860;2022-07-11T15:44:06;24.80;1.00
2523;DHT22;1272;53.332;9.860;2022-07-11T15:46:33;24.60;1.00
2523;DHT22;1272;53.332;9.860;2022-07-11T15:48:59;24.60;1.00
2523;DHT22;1272;53.332;9.860;2022-07-11T15:51:26;24.40;1.00
2523;DHT22;1272;53.332;9.860;2022-07-11T15:53:51;24.10;1.00
2523;DHT22;1272;53.332;9.860;2022-07-11T15:56:18;23.80;1.00
2523;DHT22;1272;53.332;9.860;2022-07-11T15:58:44;23.60;1.00
2523;DHT22;1272;53.332;9.860;2022-07-11T16:01:10;23.40;1.00
2523;DHT22;1272;53.332;9.860;2022-07-11T16:03:36;23.20;1.00
2523;DHT22;1272;53.332;9.860;2022-07-11T16:06:02;22.90;1.00
2523;DHT22;1272;53.332;9.860;2022-07-11T16:08:28;23.10;1.00
2523;DHT22;1272;53.332;9.860;2022-07-11T16:10:53;23.60;1.00
2523;DHT22;1272;53.332;9.860;2022-07-11T16:13:19;24.20;1.00
2523;DHT22;1272;53.332;9.860;2022-07-11T16:15:46;24.80;1.00
2523;DHT22;1272;53.332;9.860;2022-07-11T16:18:12;25.20;1.00
2523;DHT22;1272;53.332;9.860;2022-07-11T16:20:39;25.40;1.00
2523;DHT22;1272;53.332;9.860;2022-07-11T16:23:05;25.70;1.00
2523;DHT22;1272;53.332;9.860;2022-07-11T16:25:31;26.00;1.00
2523;DHT22;1272;53.332;9.860;2022-07-11T16:27:57;26.40;1.00
2523;DHT22;1272;53.332;9.860;2022-07-11T16:30:23;26.60;1.00
2523;DHT22;1272;53.332;9.860;2022-07-11T16:32:58;26.80;1.00
2523;DHT22;1272;53.332;9.860;2022-07-11T16:35:24;26.80;1.00
2523;DHT22;1272;53.332;9.860;2022-07-11T16:37:50;26.40;1.00
2523;DHT22;1272;53.332;9.860;2022-07-11T16:40:16;26.00;1.00
2523;DHT22;1272;53.332;9.860;2022-07-11T16:43:00;25.60;1.00
2523;DHT22;1272;53.332;9.860;2022-07-11T16:45:44;25.80;1.00
2523;DHT22;1272;53.332;9.860;2022-07-11T16:48:10;25.80;1.00